Time;durP1;ratioP1;P1;durP2;ratioP2;P2;SDS_P1;SDS_P2;PMS_P1;PMS_P2;Temp;Humidity;BMP_temperature;BMP_pressure;BME280_temperature;BME280_humidity;BME280_pressure;Samples;Min_cycle;Max_cycle;Signal;HPM_P1;HPM_P2
2022/12/22 03:26:55;;;;;;;5.93;0.98;;;;;;;6.37;100.00;92384.84;2074733;28;20132;-84
2022/12/22 03:28:08;;;;;;;4.63;1.00;;;;;;;6.42;100.00;92373.75;2074420;28;20709;-84
2022/12/22 03:29:11;;;;;;;6.57;1.77;;;;;;;6.40;100.00;92381.38;2075760;28;20053;-83
2022/12/22 03:30:15;;;;;;;4.22;1.10;;;;;;;6.23;100.00;92374.47;2073999;28;20013;-85
2022/12/22 03:31:16;;;;;;;4.68;1.08;;;;;;;6.29;100.00;92367.56;2066039;28;20092;-82
2022/12/22 03:32:24;;;;;;;4.15;1.20;;;;;;;6.24;100.00;92368.03;2071313;28;20053;-83
2022/12/22 03:33:28;;;;;;;2.88;0.95;;;;;;;6.19;100.00;92363.94;2065628;28;20619;-82
2022/12/22 03:34:34;;;;;;;4.68;1.20;;;;;;;6.63;100.00;92377.94;2070934;28;20463;-84
2022/12/22 03:35:38;;;;;;;3.40;1.38;;;;;;;6.42;100.00;92368.44;2074719;28;20030;-84
2022/12/22 03:36:40;;;;;;;2.88;0.98;;;;;;;6.51;100.00;92365.25;2075651;28;20116;-84
2022/12/22 03:37:41;;;;;;;5.60;1.10;;;;;;;6.61;100.00;92376.84;2066007;28;20628;-84
2022/12/22 03:38:42;;;;;;;2.53;0.93;;;;;;;6.49;100.00;92372.88;2073889;28;20029;-83
2022/12/22 03:39:45;;;;;;;4.78;1.00;;;;;;;6.42;100.00;92378.31;2065811;28;20038;-84
2022/12/22 03:40:48;;;;;;;4.60;1.10;;;;;;;6.38;100.00;92375.72;2057950;28;20134;-83
2022/12/22 03:47:18;;;;;;;6.10;1.60;;;;;;;6.16;100.00;92370.03;2077845;28;20033;-84
2022/12/22 03:48:19;;;;;;;11.80;1.55;;;;;;;6.38;100.00;92364.38;2073832;28;20035;-84
2022/12/22 03:49:25;;;;;;;7.57;1.40;;;;;;;6.40;100.00;92370.75;2074263;28;20024;-83
2022/12/22 03:50:33;;;;;;;8.82;1.58;;;;;;;6.31;100.00;92358.00;2074140;28;20030;-85
2022/12/22 03:51:38;;;;;;;4.55;1.45;;;;;;;6.43;100.00;92369.19;2074818;28;20022;-84
2022/12/22 03:52:41;;;;;;;11.18;1.58;;;;;;;6.70;100.00;92363.75;2081752;28;20022;-83
2022/12/22 03:53:42;;;;;;;9.90;2.00;;;;;;;6.49;100.00;92360.34;2079126;28;20099;-85
2022/12/22 03:54:49;;;;;;;8.90;1.33;;;;;;;6.55;100.00;92373.91;2069851;28;20108;-83
2022/12/22 03:55:50;;;;;;;8.25;1.60;;;;;;;6.45;100.00;92366.88;2074688;28;20105;-84
2022/12/22 03:56:56;;;;;;;7.03;1.30;;;;;;;6.51;100.00;92367.91;2057876;28;20026;-83
2022/12/22 03:57:57;;;;;;;8.50;1.35;;;;;;;6.66;100.00;92374.44;2057870;28;20022;-84
2022/12/22 03:59:03;;;;;;;5.50;1.60;;;;;;;6.78;100.00;92360.56;2057619;28;20038;-84
2022/12/22 04:00:10;;;;;;;6.63;1.50;;;;;;;6.72;100.00;92367.50;2066452;28;20042;-83
2022/12/22 04:01:11;;;;;;;4.55;1.40;;;;;;;6.63;100.00;92369.19;2061630;28;20545;-84
2022/12/22 04:02:14;;;;;;;8.52;1.40;;;;;;;6.54;100.00;92370.50;2058155;28;20118;-83
2022/12/22 04:03:17;;;;;;;7.43;1.20;;;;;;;6.51;100.00;92366.00;2058093;28;20034;-84
2022/12/22 04:04:25;;;;;;;12.15;1.65;;;;;;;6.70;100.00;92359.19;2056338;28;20019;-84
2022/12/22 04:05:31;;;;;;;8.07;1.30;;;;;;;6.68;100.00;92369.47;2059950;28;20026;-83
2022/12/22 04:06:49;;;;;;;6.97;1.48;;;;;;;6.59;100.00;92371.94;2067665;28;20026;-85
2022/12/22 04:07:50;;;;;;;8.15;1.42;;;;;;;6.53;100.00;92368.97;2075576;28;20113;-83
2022/12/22 04:08:51;;;;;;;8.07;2.03;;;;;;;6.81;100.00;92372.28;2065571;28;20029;-85
2022/12/22 04:12:55;;;;;;;8.85;1.65;;;;;;;6.70;100.00;92369.81;2084232;28;20033;-83
2022/12/22 04:13:56;;;;;;;6.70;1.17;;;;;;;6.71;100.00;92367.91;2079884;28;20056;-82
2022/12/22 04:14:57;;;;;;;5.63;1.33;;;;;;;6.52;100.00;92364.09;2065493;28;20116;-83
2022/12/22 04:15:58;;;;;;;7.30;1.83;;;;;;;6.81;100.00;92380.25;2057629;28;20033;-86
2022/12/22 04:16:59;;;;;;;7.05;1.20;;;;;;;6.66;100.00;92376.34;2069789;28;20062;-84
2022/12/22 04:18:00;;;;;;;7.45;1.55;;;;;;;6.57;100.00;92366.28;2074083;28;20379;-83
2022/12/22 04:19:05;;;;;;;9.48;1.70;;;;;;;6.45;100.00;92370.31;2065584;28;20100;-83
2022/12/22 04:20:07;;;;;;;10.02;1.67;;;;;;;6.53;100.00;92368.25;2064828;28;20023;-84
2022/12/22 04:21:10;;;;;;;8.10;1.63;;;;;;;6.58;100.00;92370.41;2073242;28;20022;-82
2022/12/22 04:22:14;;;;;;;6.43;1.20;;;;;;;6.51;100.00;92381.94;2058302;28;20049;-83
2022/12/22 04:23:20;;;;;;;7.93;1.15;;;;;;;6.39;100.00;92385.19;2074704;28;20643;-83
2022/12/22 04:24:22;;;;;;;11.00;1.65;;;;;;;6.36;100.00;92375.38;2080661;28;20033;-83
2022/12/22 04:25:28;;;;;;;10.07;1.60;;;;;;;6.30;100.00;92380.41;2073614;28;20204;-83
2022/12/22 04:26:29;;;;;;;11.65;1.77;;;;;;;6.34;100.00;92372.38;2072971;28;20018;-84
2022/12/22 04:27:36;;;;;;;7.00;1.40;;;;;;;6.40;100.00;92365.44;2068425;28;20694;-84
2022/12/22 04:28:40;;;;;;;7.60;1.25;;;;;;;6.70;100.00;92366.41;2062661;28;20499;-83
2022/12/22 04:29:43;;;;;;;6.45;1.38;;;;;;;6.57;100.00;92380.28;2067984;28;21766;-84
2022/12/22 04:30:51;;;;;;;8.20;1.45;;;;;;;6.38;100.00;92357.16;2074771;28;20034;-84
2022/12/22 04:31:56;;;;;;;4.80;1.20;;;;;;;6.55;100.00;92366.69;2070291;28;20037;-85
2022/12/22 04:33:00;;;;;;;4.68;1.35;;;;;;;6.50;100.00;92375.13;2060207;28;20034;-83
2022/12/22 04:34:07;;;;;;;7.50;1.58;;;;;;;6.48;100.00;92369.47;2070744;28;20064;-84
2022/12/22 04:35:11;;;;;;;9.02;1.35;;;;;;;6.51;100.00;92373.22;2072730;28;20046;-84
2022/12/22 04:36:20;;;;;;;8.75;1.63;;;;;;;6.55;100.00;92364.03;2058958;28;20487;-82
2022/12/22 04:37:21;;;;;;;5.25;1.20;;;;;;;6.44;100.00;92360.81;2058539;28;20074;-83
2022/12/22 04:38:43;;;;;;;6.78;1.80;;;;;;;6.72;100.00;92372.06;2062223;28;20596;-87
2022/12/22 04:39:58;;;;;;;6.80;1.40;;;;;;;6.74;100.00;92369.75;2065300;28;20033;-84
2022/12/22 04:41:11;;;;;;;5.28;1.35;;;;;;;6.59;100.00;92382.56;2077477;28;20072;-84
2022/12/22 04:42:21;;;;;;;7.93;1.65;;;;;;;6.74;100.00;92364.44;2084718;28;20031;-84
2022/12/22 04:43:22;;;;;;;9.82;1.42;;;;;;;6.84;100.00;92360.81;2080810;28;20490;-82
2022/12/22 04:44:30;;;;;;;8.07;1.67;;;;;;;6.81;100.00;92373.03;2065366;28;20117;-85
2022/12/22 04:45:38;;;;;;;5.25;1.35;;;;;;;6.66;100.00;92379.00;2076234;28;20025;-82
2022/12/22 04:46:42;;;;;;;5.97;1.48;;;;;;;6.59;100.00;92371.19;2065441;28;20022;-84
2022/12/22 04:47:46;;;;;;;6.53;1.52;;;;;;;6.76;100.00;92384.13;2055436;28;20029;-84
2022/12/22 04:48:49;;;;;;;4.97;1.58;;;;;;;6.80;100.00;92376.06;2064884;28;20025;-85
2022/12/22 04:49:50;;;;;;;6.90;1.38;;;;;;;6.83;100.00;92375.25;2065627;28;20105;-82
2022/12/22 04:50:55;;;;;;;8.75;1.85;;;;;;;6.61;100.00;92374.91;2057472;28;20121;-84
2022/12/22 04:52:16;;;;;;;9.10;1.60;;;;;;;6.64;100.00;92368.81;2069847;28;20418;-83
2022/12/22 04:53:26;;;;;;;10.95;1.75;;;;;;;6.73;100.00;92376.22;2070126;28;20018;-84
2022/12/22 04:54:29;;;;;;;10.32;1.70;;;;;;;6.94;100.00;92375.06;2070482;28;20030;-84
2022/12/22 04:55:36;;;;;;;12.48;1.70;;;;;;;6.80;100.00;92373.41;2078865;28;20033;-84
2022/12/22 04:56:42;;;;;;;6.25;1.38;;;;;;;6.80;100.00;92376.06;2072695;28;20022;-83
2022/12/22 04:57:49;;;;;;;6.88;1.88;;;;;;;6.72;100.00;92375.47;2065103;28;20038;-84
2022/12/22 04:58:53;;;;;;;9.10;1.40;;;;;;;6.76;100.00;92384.13;2071159;28;20025;-84
2022/12/22 04:59:54;;;;;;;8.52;1.23;;;;;;;6.59;100.00;92381.81;2080429;28;20112;-84
2022/12/22 05:01:06;;;;;;;5.22;1.23;;;;;;;6.88;100.00;92376.69;2075096;28;20398;-83
2022/12/22 05:02:12;;;;;;;9.60;1.55;;;;;;;6.63;100.00;92371.84;2069408;28;20025;-84
2022/12/22 05:03:17;;;;;;;8.32;1.90;;;;;;;6.61;100.00;92382.88;2057826;28;20069;-84
2022/12/22 05:04:20;;;;;;;5.63;1.42;;;;;;;6.64;100.00;92368.81;2066234;28;20041;-84
2022/12/22 05:05:27;;;;;;;9.13;1.60;;;;;;;6.63;100.00;92366.53;2075789;28;20025;-84
2022/12/22 05:06:31;;;;;;;9.65;1.88;;;;;;;6.78;100.00;92370.44;2076313;28;20125;-83
2022/12/22 05:07:38;;;;;;;9.27;1.60;;;;;;;6.70;100.00;92377.03;2061901;28;20037;-83
2022/12/22 05:08:39;;;;;;;9.05;1.33;;;;;;;6.92;100.00;92356.84;2058855;28;20030;-84
2022/12/22 05:09:41;;;;;;;9.75;1.75;;;;;;;6.88;100.00;92371.38;2070075;28;20042;-84
2022/12/22 05:10:48;;;;;;;6.03;1.73;;;;;;;6.63;100.00;92356.69;2073903;28;20076;-84
2022/12/22 05:11:55;;;;;;;7.72;1.70;;;;;;;6.66;100.00;92360.41;2059807;28;20468;-84
2022/12/22 05:12:59;;;;;;;10.32;2.15;;;;;;;6.69;100.00;92364.91;2059692;28;21074;-84
2022/12/22 05:14:05;;;;;;;6.88;1.45;;;;;;;6.60;100.00;92378.75;2066071;28;20026;-84
2022/12/22 05:15:10;;;;;;;9.05;1.55;;;;;;;6.50;100.00;92385.00;2066711;28;20031;-85
2022/12/22 05:16:16;;;;;;;10.43;2.80;;;;;;;6.73;100.00;92349.66;2072674;28;20026;-84
2022/12/22 05:17:22;;;;;;;6.80;1.40;;;;;;;6.79;100.00;92359.38;2064538;28;20030;-82
2022/12/22 05:18:28;;;;;;;13.25;1.90;;;;;;;6.95;100.00;92371.97;2059304;28;20026;-83
2022/12/22 05:19:34;;;;;;;8.88;1.60;;;;;;;6.94;100.00;92349.25;2066631;28;20526;-84
2022/12/22 05:20:35;;;;;;;10.07;2.20;;;;;;;6.79;100.00;92354.06;2067559;28;20026;-82
2022/12/22 05:21:40;;;;;;;11.55;1.90;;;;;;;6.71;100.00;92358.03;2073325;28;20110;-82
2022/12/22 05:22:44;;;;;;;9.55;1.70;;;;;;;6.66;100.00;92355.84;2066034;28;20045;-83
2022/12/22 05:23:58;;;;;;;12.05;2.00;;;;;;;6.59;100.00;92347.28;2082986;28;20010;-84
2022/12/22 05:25:03;;;;;;;8.88;1.60;;;;;;;6.54;100.00;92351.16;2083912;28;20010;-84
2022/12/22 05:26:13;;;;;;;11.77;2.00;;;;;;;6.60;100.00;92359.41;2076352;28;20308;-84
2022/12/22 05:27:19;;;;;;;7.63;1.58;;;;;;;6.66;100.00;92352.44;2067472;28;20058;-83
2022/12/22 05:28:22;;;;;;;8.80;1.70;;;;;;;6.87;100.00;92352.03;2067675;28;20109;-83
2022/12/22 05:29:30;;;;;;;10.63;1.80;;;;;;;6.88;100.00;92348.22;2073678;28;21221;-83
2022/12/22 05:30:33;;;;;;;11.43;1.90;;;;;;;6.95;100.00;92364.00;2078730;28;20126;-83
2022/12/22 05:31:37;;;;;;;10.25;1.65;;;;;;;7.06;100.00;92358.47;2070007;28;20038;-85
2022/12/22 05:32:38;;;;;;;12.32;2.05;;;;;;;6.93;100.00;92350.38;2068255;28;20029;-83
2022/12/22 05:33:40;;;;;;;7.47;1.75;;;;;;;6.91;100.00;92365.25;2064261;28;20019;-84
2022/12/22 05:34:41;;;;;;;8.07;1.80;;;;;;;6.67;100.00;92352.06;2065403;28;20029;-83
2022/12/22 05:35:44;;;;;;;8.43;1.38;;;;;;;6.80;100.00;92360.13;2056815;28;20708;-84
2022/12/22 05:36:48;;;;;;;11.00;1.55;;;;;;;6.79;100.00;92334.75;2073515;28;20541;-83
2022/12/22 05:37:49;;;;;;;12.68;1.80;;;;;;;6.60;100.00;92333.59;2073226;28;20029;-83
2022/12/22 05:38:53;;;;;;;11.00;2.05;;;;;;;6.47;100.00;92344.09;2057266;28;20038;-84
2022/12/22 05:39:55;;;;;;;11.65;1.70;;;;;;;6.40;100.00;92349.50;2069569;28;20029;-84
2022/12/22 05:40:59;;;;;;;8.25;1.58;;;;;;;6.45;100.00;92329.72;2071984;28;21893;-84
2022/12/22 05:42:00;;;;;;;6.28;1.30;;;;;;;6.69;100.00;92341.75;2060172;28;20081;-84
2022/12/22 05:43:04;;;;;;;9.98;1.50;;;;;;;6.64;100.00;92352.88;2057692;28;20408;-83
2022/12/22 05:44:10;;;;;;;5.22;1.20;;;;;;;6.82;100.00;92355.19;2051709;28;20030;-84
2022/12/22 05:45:13;;;;;;;9.40;1.63;;;;;;;6.60;100.00;92352.19;2057738;28;20054;-84
2022/12/22 05:46:17;;;;;;;6.97;1.38;;;;;;;6.42;100.00;92357.84;2057704;28;20022;-84
2022/12/22 05:47:20;;;;;;;8.55;2.10;;;;;;;6.31;100.00;92355.34;2057395;28;20480;-83
2022/12/22 05:48:28;;;;;;;12.30;1.85;;;;;;;6.20;100.00;92351.41;2060029;28;20033;-84
2022/12/22 05:49:32;;;;;;;6.93;1.58;;;;;;;6.08;100.00;92360.69;2069468;28;20019;-84
2022/12/22 05:50:33;;;;;;;6.35;1.40;;;;;;;6.04;100.00;92355.47;2085164;28;20030;-84
2022/12/22 05:51:36;;;;;;;7.05;1.30;;;;;;;5.95;100.00;92357.88;2080922;28;20074;-84
2022/12/22 05:52:38;;;;;;;6.28;1.55;;;;;;;5.93;100.00;92365.50;2062824;28;20137;-84
2022/12/22 05:53:43;;;;;;;6.63;1.73;;;;;;;6.45;100.00;92356.25;2063650;28;20053;-85
2022/12/22 05:54:47;;;;;;;6.15;1.27;;;;;;;6.40;100.00;92376.06;2058287;28;20111;-83
2022/12/22 05:55:48;;;;;;;7.75;1.45;;;;;;;6.50;100.00;92355.81;2072987;28;20143;-83
2022/12/22 05:56:52;;;;;;;8.25;2.03;;;;;;;6.34;100.00;92371.63;2065209;28;20060;-84
2022/12/22 05:58:00;;;;;;;10.98;2.25;;;;;;;6.18;100.00;92365.06;2054741;28;21495;-84
2022/12/22 05:59:05;;;;;;;6.90;1.42;;;;;;;6.17;100.00;92365.47;2065570;28;20030;-84
2022/12/22 06:00:14;;;;;;;9.55;2.45;;;;;;;6.42;100.00;92368.44;2052785;28;20031;-85
2022/12/22 06:01:17;;;;;;;6.80;1.50;;;;;;;6.44;100.00;92371.44;2051485;28;20035;-83
2022/12/22 06:02:20;;;;;;;4.75;1.17;;;;;;;6.33;100.00;92360.28;2058007;28;20023;-84
2022/12/22 06:03:32;;;;;;;7.53;2.40;;;;;;;6.13;100.00;92368.19;2058505;28;20041;-84
2022/12/22 06:04:48;;;;;;;5.28;1.27;;;;;;;6.22;100.00;92360.44;2058437;28;20047;-84
2022/12/22 06:05:55;;;;;;;7.43;1.20;;;;;;;6.04;100.00;92376.69;2060340;28;20014;-84
2022/12/22 06:06:58;;;;;;;10.63;1.60;;;;;;;6.22;100.00;92349.09;2065804;28;20022;-82
2022/12/22 06:08:02;;;;;;;10.63;1.60;;;;;;;6.15;100.00;92375.78;2060853;28;20479;-85
2022/12/22 06:09:03;;;;;;;6.70;1.70;;;;;;;6.03;100.00;92353.97;2065611;28;20050;-84
2022/12/22 06:10:08;;;;;;;10.20;1.85;;;;;;;6.30;100.00;92356.53;2081074;28;20032;-83
2022/12/22 06:11:16;;;;;;;4.03;1.50;;;;;;;6.15;100.00;92351.88;2073363;28;20388;-84
2022/12/22 06:12:18;;;;;;;10.07;1.50;;;;;;;6.28;100.00;92353.53;2073408;28;20030;-84
2022/12/22 06:13:21;;;;;;;8.90;2.08;;;;;;;6.31;100.00;92344.00;2066935;28;20105;-83
2022/12/22 06:14:23;;;;;;;12.82;2.25;;;;;;;6.22;100.00;92343.78;2057526;28;20039;-83
2022/12/22 06:15:30;;;;;;;11.15;2.03;;;;;;;6.39;100.00;92358.63;2065685;28;20022;-84
2022/12/22 06:16:37;;;;;;;13.88;2.90;;;;;;;6.34;100.00;92348.50;2065620;28;20814;-83
2022/12/22 06:17:55;;;;;;;10.07;1.67;;;;;;;6.16;100.00;92353.38;2063802;28;20486;-83
2022/12/22 06:19:18;;;;;;;9.10;1.77;;;;;;;6.00;100.00;92344.16;2072396;28;20432;-85
2022/12/22 06:20:30;;;;;;;11.70;1.70;;;;;;;5.98;100.00;92351.03;2072957;28;20029;-83
2022/12/22 06:21:31;;;;;;;10.00;2.00;;;;;;;5.81;100.00;92368.69;2072080;28;20041;-84
2022/12/22 06:22:39;;;;;;;4.50;1.15;;;;;;;5.90;100.00;92353.03;2060738;28;20033;-83
2022/12/22 06:23:47;;;;;;;8.88;2.03;;;;;;;5.92;100.00;92365.91;2073539;28;21304;-83
2022/12/22 06:24:51;;;;;;;8.40;1.88;;;;;;;6.38;100.00;92349.19;2070842;28;20030;-84
2022/12/22 06:25:59;;;;;;;7.22;1.63;;;;;;;6.39;100.00;92348.03;2057404;28;20411;-83
2022/12/22 06:27:00;;;;;;;9.60;1.60;;;;;;;6.55;100.00;92339.41;2061854;28;20031;-84
2022/12/22 06:28:06;;;;;;;6.80;1.33;;;;;;;6.52;100.00;92340.94;2072329;28;20079;-84
2022/12/22 06:29:14;;;;;;;8.23;1.58;;;;;;;6.47;100.00;92328.16;2085584;28;20026;-84
2022/12/22 06:30:18;;;;;;;13.90;1.90;;;;;;;6.40;100.00;92341.56;2072798;28;20048;-83
2022/12/22 06:31:24;;;;;;;7.25;1.77;;;;;;;6.43;100.00;92343.41;2066134;28;20145;-85
2022/12/22 06:32:31;;;;;;;12.93;1.95;;;;;;;6.46;100.00;92336.53;2065074;28;20387;-83
2022/12/22 06:33:39;;;;;;;8.77;1.40;;;;;;;6.21;100.00;92347.59;2059645;28;20022;-84
2022/12/22 06:34:43;;;;;;;11.20;1.70;;;;;;;6.33;100.00;92344.34;2066131;28;20073;-85
2022/12/22 06:35:44;;;;;;;9.52;1.70;;;;;;;6.16;100.00;92335.56;2071508;28;20042;-84
2022/12/22 06:36:48;;;;;;;7.45;1.60;;;;;;;6.05;100.00;92341.03;2060567;28;20088;-84
2022/12/22 06:37:52;;;;;;;13.15;2.00;;;;;;;6.04;100.00;92347.50;2065426;28;20415;-84
2022/12/22 06:38:53;;;;;;;7.40;1.20;;;;;;;6.52;100.00;92338.28;2064845;28;20061;-81
2022/12/22 06:39:54;;;;;;;11.63;1.70;;;;;;;6.41;100.00;92363.53;2072913;28;20037;-83
2022/12/22 06:40:55;;;;;;;7.30;1.33;;;;;;;6.50;100.00;92345.94;2072803;28;20490;-84
2022/12/22 06:43:18;;;;;;;7.10;1.27;;;;;;;6.56;100.00;92336.31;2086397;28;20094;-85
2022/12/22 06:44:21;;;;;;;11.20;1.58;;;;;;;6.53;100.00;92339.03;2070880;28;20026;-82
2022/12/22 06:45:28;;;;;;;7.53;1.65;;;;;;;6.43;100.00;92364.63;2064754;28;20419;-84
2022/12/22 06:46:31;;;;;;;8.70;1.60;;;;;;;6.40;100.00;92341.56;2066041;28;20053;-84
2022/12/22 06:47:37;;;;;;;10.73;1.48;;;;;;;6.27;100.00;92330.03;2060055;28;20022;-84
2022/12/22 06:48:40;;;;;;;11.80;1.80;;;;;;;6.20;100.00;92322.22;2065738;28;20468;-84
2022/12/22 06:49:48;;;;;;;5.00;1.17;;;;;;;6.42;100.00;92330.53;2066507;28;20514;-82
2022/12/22 06:50:57;;;;;;;9.85;1.70;;;;;;;6.36;100.00;92327.59;2060608;28;20059;-85
2022/12/22 06:52:01;;;;;;;6.78;1.55;;;;;;;6.25;100.00;92330.47;2070504;28;20017;-83
2022/12/22 06:53:05;;;;;;;12.05;1.55;;;;;;;6.15;100.00;92328.75;2066341;28;20704;-84
2022/12/22 06:54:12;;;;;;;16.35;1.95;;;;;;;6.42;100.00;92341.16;2051323;28;20070;-83
2022/12/22 06:55:18;;;;;;;9.82;1.52;;;;;;;6.17;100.00;92334.38;2062567;28;20022;-84
2022/12/22 06:56:22;;;;;;;15.00;2.03;;;;;;;6.13;100.00;92328.41;2065536;28;20022;-83
2022/12/22 06:57:33;;;;;;;11.98;2.45;;;;;;;6.47;100.00;92336.13;2056102;28;20423;-85
2022/12/22 06:58:37;;;;;;;13.27;2.10;;;;;;;6.31;100.00;92351.97;2059496;28;20030;-83
2022/12/22 06:59:38;;;;;;;8.90;1.92;;;;;;;6.45;100.00;92349.06;2065951;28;20026;-84
2022/12/22 07:00:47;;;;;;;9.68;2.28;;;;;;;6.34;100.00;92351.16;2077581;28;20088;-85
2022/12/22 07:01:55;;;;;;;14.45;3.13;;;;;;;6.24;100.00;92342.22;2081801;28;20033;-83
2022/12/22 07:02:59;;;;;;;14.23;1.90;;;;;;;6.40;100.00;92344.19;2070094;28;20358;-83
2022/12/22 07:04:00;;;;;;;12.13;2.53;;;;;;;6.40;100.00;92349.50;2063814;28;20586;-83
2022/12/22 07:05:01;;;;;;;13.30;2.17;;;;;;;6.27;100.00;92372.50;2061568;28;20050;-86
2022/12/22 07:06:02;;;;;;;10.88;1.98;;;;;;;6.16;100.00;92337.47;2076672;28;20029;-83
2022/12/22 07:07:03;;;;;;;10.90;2.13;;;;;;;6.14;100.00;92356.41;2076354;28;20037;-84
2022/12/22 07:08:12;;;;;;;11.20;1.98;;;;;;;6.03;100.00;92353.97;2065750;28;20026;-84
2022/12/22 07:09:13;;;;;;;7.57;1.98;;;;;;;6.40;100.00;92360.13;2072373;28;20096;-84
2022/12/22 07:10:14;;;;;;;14.55;2.13;;;;;;;6.11;100.00;92362.56;2057639;28;20077;-84
2022/12/22 07:11:15;;;;;;;12.98;2.00;;;;;;;6.27;100.00;92357.31;2060238;28;20022;-85
2022/12/22 07:12:17;;;;;;;14.13;2.80;;;;;;;6.28;100.00;92363.41;2065939;28;20483;-85
2022/12/22 07:13:20;;;;;;;12.50;2.28;;;;;;;6.17;100.00;92350.31;2062272;28;20065;-86
2022/12/22 07:14:22;;;;;;;12.15;1.77;;;;;;;6.22;100.00;92354.41;2064273;28;20029;-84
2022/12/22 07:15:25;;;;;;;14.00;2.47;;;;;;;6.24;100.00;92355.50;2073852;28;20018;-83
2022/12/22 07:16:30;;;;;;;13.95;2.42;;;;;;;6.45;100.00;92359.69;2073922;28;20656;-85
2022/12/22 07:17:34;;;;;;;15.68;2.53;;;;;;;6.40;100.00;92356.72;2066381;28;20635;-84
2022/12/22 07:18:40;;;;;;;16.88;2.35;;;;;;;6.30;100.00;92361.09;2064205;28;20545;-84
2022/12/22 07:19:45;;;;;;;12.40;2.83;;;;;;;6.18;100.00;92356.38;2064961;28;20031;-84
2022/12/22 07:20:46;;;;;;;14.65;2.70;;;;;;;6.21;100.00;92374.13;2081752;28;20028;-85
2022/12/22 07:21:50;;;;;;;14.73;2.25;;;;;;;6.31;100.00;92373.94;2074927;28;20046;-85
2022/12/22 07:22:54;;;;;;;12.52;2.15;;;;;;;6.41;100.00;92366.97;2066634;28;20029;-82
2022/12/22 07:23:55;;;;;;;19.45;2.75;;;;;;;6.68;100.00;92388.06;2064819;28;20030;-84
2022/12/22 07:24:57;;;;;;;14.32;2.70;;;;;;;6.57;100.00;92369.66;2077910;28;20040;-83
2022/12/22 07:26:03;;;;;;;10.75;2.25;;;;;;;6.56;100.00;92378.81;2074294;28;20025;-85
2022/12/22 07:27:12;;;;;;;11.68;1.85;;;;;;;6.74;100.00;92362.53;2059431;28;20026;-85
2022/12/22 07:28:16;;;;;;;13.98;2.38;;;;;;;6.84;100.00;92360.81;2059743;28;20030;-84
2022/12/22 07:29:22;;;;;;;13.63;1.83;;;;;;;6.64;100.00;92374.13;2058581;28;20495;-85
2022/12/22 07:30:29;;;;;;;14.13;2.10;;;;;;;6.75;100.00;92389.84;2059540;28;20022;-84
2022/12/22 07:31:35;;;;;;;14.82;2.33;;;;;;;6.90;100.00;92385.75;2067071;28;20026;-84
2022/12/22 07:32:41;;;;;;;13.30;1.83;;;;;;;6.95;100.00;92373.91;2066205;28;20065;-85
2022/12/22 07:33:45;;;;;;;13.35;2.70;;;;;;;6.81;100.00;92378.34;2058027;28;20050;-85
2022/12/22 07:34:51;;;;;;;15.88;4.63;;;;;;;6.81;100.00;92372.28;2066156;28;20510;-85
2022/12/22 07:36:08;;;;;;;9.55;1.70;;;;;;;6.95;100.00;92371.97;2060500;28;20688;-85
2022/12/22 07:37:20;;;;;;;17.20;3.25;;;;;;;6.94;100.00;92367.09;2062690;28;20073;-84
2022/12/22 07:38:23;;;;;;;16.38;2.70;;;;;;;6.96;100.00;92381.44;2068694;28;20042;-85
2022/12/22 07:39:27;;;;;;;11.20;2.20;;;;;;;6.77;100.00;92396.25;2066483;28;20078;-88
2022/12/22 07:40:45;;;;;;;9.98;2.22;;;;;;;6.76;100.00;92407.25;2067739;28;20038;-84
2022/12/22 07:43:12;;;;;;;10.68;2.95;;;;;;;6.97;100.00;92377.63;2089523;28;20016;-87
2022/12/22 07:44:16;;;;;;;10.40;2.15;;;;;;;7.00;100.00;92389.34;2091372;28;20013;-85
2022/12/22 07:45:48;;;;;;;9.05;1.80;;;;;;;6.99;100.00;92391.25;2084683;28;20037;-85
2022/12/22 07:47:00;;;;;;;8.93;1.63;;;;;;;6.94;100.00;92405.03;2072790;28;20487;-86
2022/12/22 07:50:23;;;;;;;11.35;2.55;;;;;;;6.97;100.00;92392.81;2070092;28;20066;-85
2022/12/22 07:51:07;;;;;;;8.55;1.13;;;;;;;7.34;100.00;92393.59;2081214;28;20508;-85
2022/12/22 07:52:30;;;;;;;9.48;1.75;;;;;;;7.30;100.00;92388.34;2071467;28;20025;-86
2022/12/22 07:53:34;;;;;;;7.78;1.65;;;;;;;7.35;100.00;92393.19;2070337;28;20076;-87
2022/12/22 07:55:02;;;;;;;6.75;2.03;;;;;;;7.13;100.00;92390.22;2072548;28;20044;-88
2022/12/22 07:56:13;;;;;;;8.57;2.22;;;;;;;6.96;100.00;92400.03;2069776;28;20026;-87
2022/12/22 07:57:14;;;;;;;6.85;1.60;;;;;;;7.09;100.00;92391.47;2060445;28;20038;-87
2022/12/22 07:58:35;;;;;;;10.63;1.77;;;;;;;7.20;100.00;92392.75;2060708;28;20027;-86
2022/12/22 07:59:39;;;;;;;15.80;2.85;;;;;;;7.35;100.00;92432.31;2081163;28;20031;-87
2022/12/22 08:00:45;;;;;;;8.55;1.77;;;;;;;7.14;100.00;92397.03;2076356;28;20022;-84
2022/12/22 08:01:56;;;;;;;6.57;1.13;;;;;;;7.14;100.00;92410.31;2060814;28;20015;-85
2022/12/22 08:03:01;;;;;;;12.45;1.52;;;;;;;7.01;100.00;92396.91;2066150;28;20030;-85
2022/12/22 08:04:10;;;;;;;9.75;2.47;;;;;;;6.72;100.00;92401.28;2074345;28;20037;-85
2022/12/22 08:05:12;;;;;;;10.50;2.70;;;;;;;6.43;100.00;92415.06;2065822;28;20034;-85
2022/12/22 08:06:27;;;;;;;10.93;1.52;;;;;;;6.38;100.00;92423.50;2072011;28;20025;-86
2022/12/22 08:07:31;;;;;;;11.93;1.98;;;;;;;6.35;100.00;92419.00;2072313;28;20117;-85
2022/12/22 08:08:35;;;;;;;13.27;3.10;;;;;;;6.24;100.00;92405.19;2065436;28;20032;-86
2022/12/22 08:09:48;;;;;;;11.02;2.70;;;;;;;6.14;100.00;92414.03;2057977;28;20163;-85
2022/12/22 08:10:55;;;;;;;7.03;1.50;;;;;;;6.40;100.00;92413.22;2062597;28;20425;-85
2022/12/22 08:11:59;;;;;;;9.55;1.90;;;;;;;6.41;100.00;92411.31;2068722;28;20048;-84
2022/12/22 08:13:03;;;;;;;9.77;1.83;;;;;;;6.46;100.00;92422.22;2066029;28;20061;-85
2022/12/22 08:14:07;;;;;;;9.13;1.50;;;;;;;6.52;100.00;92409.22;2061573;28;20054;-83
2022/12/22 08:15:10;;;;;;;9.23;2.58;;;;;;;6.47;100.00;92423.72;2064030;28;20546;-85
2022/12/22 08:16:12;;;;;;;17.17;2.25;;;;;;;6.39;100.00;92418.94;2069965;28;20110;-84
2022/12/22 08:17:14;;;;;;;11.13;1.52;;;;;;;6.59;100.00;92416.31;2065077;28;20022;-82
2022/12/22 08:18:15;;;;;;;10.00;1.92;;;;;;;6.48;100.00;92419.16;2064626;28;20716;-84
2022/12/22 08:19:16;;;;;;;10.43;1.90;;;;;;;6.38;100.00;92438.69;2072789;28;20029;-84
2022/12/22 08:20:17;;;;;;;12.70;2.20;;;;;;;6.34;100.00;92420.16;2062943;28;20022;-86
2022/12/22 08:21:18;;;;;;;8.38;2.28;;;;;;;6.32;100.00;92430.41;2064502;28;20518;-84
2022/12/22 08:22:22;;;;;;;13.50;2.17;;;;;;;6.33;100.00;92445.22;2080981;28;20088;-85
2022/12/22 08:23:23;;;;;;;10.20;2.20;;;;;;;6.17;100.00;92421.22;2085441;28;20028;-83
2022/12/22 08:24:25;;;;;;;8.80;1.77;;;;;;;6.35;100.00;92436.81;2078830;28;20438;-85
2022/12/22 08:25:26;;;;;;;6.47;1.30;;;;;;;6.56;100.00;92433.81;2079201;28;20705;-84
2022/12/22 08:26:37;;;;;;;11.00;1.55;;;;;;;6.57;100.00;92438.69;2070743;28;20503;-84
2022/12/22 08:28:13;;;;;;;15.27;2.50;;;;;;;6.36;100.00;92433.00;2058830;28;20575;-85
2022/12/22 08:30:06;;;;;;;12.35;2.22;;;;;;;6.21;100.00;92427.94;2072995;28;20425;-86
2022/12/22 08:31:48;;;;;;;9.57;1.52;;;;;;;6.51;100.00;92413.78;2033437;29;20085;-85
2022/12/22 08:33:30;;;;;;;;;;;;;;;;;;;;;
2022/12/22 08:35:11;;;;;;;6.97;1.50;;;;;;;6.41;100.00;92451.13;2016142;29;20039;-85
2022/12/22 08:37:07;;;;;;;;;;;;;;;;;;;;;
2022/12/22 08:41:12;;;;;;;8.63;1.83;;;;;;;6.44;100.00;92434.41;2025522;29;20045;-86
2022/12/22 08:46:01;;;;;;;10.45;2.17;;;;;;;6.52;100.00;92446.41;1991148;29;20053;-84
2022/12/22 08:48:32;;;;;;;;;;;;;;;;;;;;;
2022/12/22 09:14:31;;;;;;;;;;;;;;;;;;;;;
2022/12/22 09:29:21;;;;;;;6.38;1.63;;;;;;;6.32;100.00;92456.97;2055770;28;20104;-85
2022/12/22 09:31:27;;;;;;;12.10;2.17;;;;;;;6.26;100.00;92461.25;2071483;28;20127;-83
2022/12/22 09:33:30;;;;;;;12.73;2.72;;;;;;;6.24;100.00;92437.75;2079647;28;20034;-85
2022/12/22 09:36:01;;;;;;;;;;;;;;;;;;;;;
2022/12/22 09:37:38;;;;;;;9.90;2.05;;;;;;;6.25;100.00;92462.41;2263404;22;20057;-84
2022/12/22 09:44:57;;;;;;;10.88;2.05;;;;;;;6.50;100.00;92470.69;2056438;28;20535;-86
2022/12/22 09:47:23;;;;;;;8.45;1.83;;;;;;;6.75;100.00;92456.97;2066039;28;20172;-84
2022/12/22 09:48:36;;;;;;;8.07;2.17;;;;;;;6.70;100.00;92446.06;2079933;28;20195;-82
2022/12/22 09:50:58;;;;;;;13.52;2.30;;;;;;;6.80;100.00;92455.75;2084232;28;20060;-87
2022/12/22 09:52:44;;;;;;;12.15;1.85;;;;;;;6.86;100.00;92440.09;2056199;28;20038;-82